createdAt,value
2023-03-18T00:02:13.282Z,8.88
2023-03-18T00:04:43.654Z,8.89
2023-03-18T00:07:13.896Z,8.92
2023-03-18T00:09:44.739Z,8.93
2023-03-18T00:12:13.265Z,8.95
2023-03-18T00:14:41.974Z,8.90
2023-03-18T00:17:09.988Z,8.96
2023-03-18T00:19:38.519Z,8.97
2023-03-18T00:22:08.280Z,8.98
2023-03-18T00:24:39.064Z,8.98
2023-03-18T00:27:09.968Z,9.02
2023-03-18T00:29:39.912Z,9.03
2023-03-18T00:32:10.027Z,9.01
2023-03-18T00:34:39.851Z,9.07
2023-03-18T00:37:08.539Z,9.08
2023-03-18T00:39:38.342Z,9.10
2023-03-18T00:42:10.781Z,9.14
2023-03-18T00:44:41.116Z,9.18
2023-03-18T00:47:09.355Z,9.17
2023-03-18T00:49:37.708Z,9.19
2023-03-18T00:52:06.366Z,9.21
2023-03-18T00:54:38.429Z,9.24
2023-03-18T00:57:06.919Z,9.27
2023-03-18T00:59:37.117Z,9.30
2023-03-18T01:02:06.642Z,9.29
2023-03-18T01:04:35.309Z,9.33
2023-03-18T01:07:03.639Z,9.35
2023-03-18T01:09:32.817Z,9.40
2023-03-18T01:12:04.016Z,9.39
2023-03-18T01:14:33.350Z,9.40
2023-03-18T01:17:03.182Z,9.41
2023-03-18T01:19:32.006Z,9.41
2023-03-18T01:22:00.217Z,9.34
2023-03-18T01:24:29.333Z,9.21
2023-03-18T01:26:58.199Z,9.15
2023-03-18T01:29:28.060Z,9.12
2023-03-18T01:31:56.981Z,9.09
2023-03-18T01:34:26.221Z,9.03
2023-03-18T01:36:55.833Z,8.94
2023-03-18T01:39:27.197Z,8.97
2023-03-18T01:41:56.044Z,8.93
2023-03-18T01:44:31.965Z,8.87
2023-03-18T01:47:03.446Z,8.85
2023-03-18T01:49:36.997Z,8.84
2023-03-18T01:52:10.873Z,8.83
2023-03-18T01:54:43.171Z,8.82
2023-03-18T01:57:14.523Z,8.81
2023-03-18T01:59:45.750Z,8.79
2023-03-18T02:02:16.849Z,8.74
2023-03-18T02:04:51.154Z,8.78
2023-03-18T02:07:22.081Z,8.87
2023-03-18T02:09:52.056Z,8.88
2023-03-18T02:12:24.234Z,8.89
2023-03-18T02:14:57.143Z,8.87
2023-03-18T02:17:29.251Z,8.86
2023-03-18T02:20:10.469Z,8.86
2023-03-18T02:22:43.414Z,8.85
2023-03-18T02:25:32.763Z,8.84
2023-03-18T02:28:05.069Z,8.79
2023-03-18T02:30:39.005Z,8.76
2023-03-18T02:33:10.118Z,8.72
2023-03-18T02:35:41.593Z,8.66
2023-03-18T02:38:10.074Z,8.67
2023-03-18T02:40:42.214Z,8.71
2023-03-18T02:43:24.358Z,8.79
2023-03-18T02:46:12.526Z,8.78
2023-03-18T02:48:44.928Z,8.78
2023-03-18T02:51:16.142Z,8.76
2023-03-18T02:53:45.265Z,8.74
2023-03-18T02:56:16.370Z,8.76
2023-03-18T02:58:51.300Z,8.72
2023-03-18T03:01:21.057Z,8.70
2023-03-18T03:03:49.835Z,8.66
2023-03-18T03:06:18.357Z,8.66
2023-03-18T03:08:48.040Z,8.67
2023-03-18T03:11:17.211Z,8.70
2023-03-18T03:13:48.239Z,8.70
2023-03-18T03:16:18.867Z,8.67
2023-03-18T03:18:47.382Z,8.64
2023-03-18T03:21:16.233Z,8.59
2023-03-18T03:23:48.204Z,8.64
2023-03-18T03:26:18.226Z,8.69
2023-03-18T03:28:48.162Z,8.65
2023-03-18T03:31:17.010Z,8.57
2023-03-18T03:33:45.665Z,8.57
2023-03-18T03:36:18.454Z,8.56
2023-03-18T03:38:47.090Z,8.58
2023-03-18T03:41:16.141Z,8.54
2023-03-18T03:43:44.794Z,8.55
2023-03-18T03:46:14.401Z,8.55
2023-03-18T03:48:43.056Z,8.55
2023-03-18T03:51:17.027Z,8.51
2023-03-18T03:53:46.414Z,8.52
2023-03-18T03:56:15.905Z,8.52
2023-03-18T03:58:45.008Z,8.50
2023-03-18T04:01:14.853Z,8.50
2023-03-18T04:03:49.876Z,8.48
2023-03-18T04:06:23.539Z,8.47
2023-03-18T04:09:04.598Z,8.46
2023-03-18T04:11:33.915Z,8.42
2023-03-18T04:14:02.422Z,8.20
2023-03-18T04:16:31.974Z,8.25
2023-03-18T04:19:03.493Z,8.15
2023-03-18T04:21:34.862Z,8.08
2023-03-18T04:24:06.771Z,7.99
2023-03-18T04:26:35.345Z,7.94
2023-03-18T04:29:05.784Z,7.88
2023-03-18T04:31:37.898Z,7.82
2023-03-18T04:34:06.657Z,7.75
2023-03-18T04:36:37.898Z,7.68
2023-03-18T04:39:06.726Z,7.62
2023-03-18T04:41:37.544Z,7.61
2023-03-18T04:44:07.746Z,7.56
2023-03-18T04:46:45.057Z,7.56
2023-03-18T04:50:46.309Z,7.57
2023-03-18T04:53:21.104Z,7.60
2023-03-18T04:55:50.636Z,7.64
2023-03-18T04:58:21.100Z,7.66
2023-03-18T05:01:04.802Z,7.72
2023-03-18T05:03:41.024Z,7.77
2023-03-18T05:06:21.799Z,7.75
2023-03-18T05:09:02.515Z,7.86
2023-03-18T05:11:34.545Z,7.88
2023-03-18T05:14:12.550Z,7.89
2023-03-18T05:16:46.134Z,7.90
2023-03-18T05:19:17.211Z,7.90
2023-03-18T05:21:54.383Z,7.90
2023-03-18T05:24:23.563Z,7.90
2023-03-18T05:26:51.881Z,7.90
2023-03-18T05:29:24.753Z,7.92
2023-03-18T05:32:00.254Z,7.91
2023-03-18T05:34:30.326Z,7.92
2023-03-18T05:37:00.483Z,7.92
2023-03-18T05:39:29.135Z,7.95
2023-03-18T05:41:57.361Z,7.95
2023-03-18T05:44:29.628Z,7.96
2023-03-18T05:47:01.682Z,7.98
2023-03-18T05:49:45.657Z,7.99
2023-03-18T05:52:26.014Z,8.00
2023-03-18T05:54:58.277Z,8.01
2023-03-18T05:57:33.525Z,8.01
2023-03-18T06:00:09.080Z,8.01
2023-03-18T06:02:48.888Z,8.00
2023-03-18T06:05:22.196Z,8.01
2023-03-18T06:07:52.505Z,8.01
2023-03-18T06:10:22.838Z,8.00
2023-03-18T06:12:55.802Z,7.95
2023-03-18T06:15:24.628Z,8.02
2023-03-18T06:17:53.022Z,8.06
2023-03-18T06:20:22.670Z,8.11
2023-03-18T06:22:52.702Z,8.16
2023-03-18T06:25:22.639Z,8.23
2023-03-18T06:27:50.980Z,8.16
2023-03-18T06:30:22.721Z,8.28
2023-03-18T06:32:51.768Z,8.29
2023-03-18T06:35:21.865Z,8.31
2023-03-18T06:37:53.809Z,8.35
2023-03-18T06:40:25.821Z,8.46
2023-03-18T06:42:55.847Z,8.45
2023-03-18T06:45:34.422Z,8.72
2023-03-18T06:48:09.658Z,9.01
2023-03-18T06:50:43.233Z,9.17
2023-03-18T06:53:31.032Z,9.34
2023-03-18T06:56:01.741Z,9.43
2023-03-18T06:58:37.843Z,9.69
2023-03-18T07:01:09.364Z,10.44
2023-03-18T07:03:42.425Z,11.09
2023-03-18T07:06:11.888Z,11.27
2023-03-18T07:08:42.375Z,12.01
2023-03-18T07:11:13.409Z,12.68
2023-03-18T07:13:44.223Z,13.30
2023-03-18T07:16:23.343Z,13.44
2023-03-18T07:18:51.418Z,13.53
2023-03-18T07:21:22.586Z,14.02
2023-03-18T07:23:52.290Z,13.66
2023-03-18T07:26:20.593Z,13.53
2023-03-18T07:28:48.856Z,13.07
2023-03-18T07:31:18.083Z,12.90
2023-03-18T07:33:46.942Z,13.96
2023-03-18T07:36:15.341Z,14.79
2023-03-18T07:38:46.361Z,15.31
2023-03-18T07:41:16.474Z,16.43
2023-03-18T07:43:45.164Z,17.81
2023-03-18T07:46:13.539Z,18.81
2023-03-18T07:48:42.139Z,19.07
2023-03-18T07:51:10.347Z,18.63
2023-03-18T07:53:38.471Z,18.53
2023-03-18T07:56:08.274Z,18.10
2023-03-18T07:58:38.861Z,17.59
2023-03-18T08:01:07.645Z,17.64
2023-03-18T08:03:36.162Z,16.97
2023-03-18T08:06:04.495Z,17.92
2023-03-18T08:08:33.177Z,18.02
2023-03-18T08:11:03.614Z,17.72
2023-03-18T08:13:32.091Z,17.19
2023-03-18T08:16:04.216Z,18.08
2023-03-18T08:18:32.612Z,18.91
2023-03-18T08:21:01.015Z,20.26
2023-03-18T08:23:29.393Z,19.89
2023-03-18T08:25:57.682Z,20.89
2023-03-18T08:28:26.342Z,21.25
2023-03-18T08:30:57.908Z,21.87
2023-03-18T08:33:28.974Z,21.66
2023-03-18T08:35:57.982Z,21.92
2023-03-18T08:38:28.604Z,22.07
2023-03-18T08:40:57.953Z,21.10
2023-03-18T08:43:31.529Z,21.87
2023-03-18T08:45:59.932Z,21.24
2023-03-18T08:48:30.883Z,21.24
2023-03-18T08:50:59.666Z,21.26
2023-03-18T08:53:28.212Z,20.83
2023-03-18T08:55:57.123Z,21.66
2023-03-18T08:58:25.215Z,21.52
2023-03-18T09:00:56.609Z,21.93
2023-03-18T09:03:25.362Z,21.59
2023-03-18T09:05:55.741Z,22.03
2023-03-18T09:08:24.070Z,23.18
2023-03-18T09:10:53.701Z,23.35
2023-03-18T09:13:22.624Z,23.55
2023-03-18T09:15:52.061Z,24.42
2023-03-18T09:18:20.519Z,24.31
2023-03-18T09:20:49.070Z,23.14
2023-03-18T09:23:19.247Z,23.98
2023-03-18T09:25:48.377Z,23.29
2023-03-18T09:28:18.931Z,22.47
2023-03-18T09:30:47.172Z,23.08
2023-03-18T09:33:16.257Z,23.71
2023-03-18T09:35:46.722Z,23.99
2023-03-18T09:38:21.110Z,22.83
2023-03-18T09:41:03.049Z,22.83
2023-03-18T09:43:45.934Z,22.33
2023-03-18T09:46:20.016Z,22.42
2023-03-18T09:51:57.844Z,23.12
2023-03-18T09:54:34.809Z,22.92
2023-03-18T09:57:13.079Z,22.73
2023-03-18T09:59:48.651Z,20.92
2023-03-18T10:02:23.867Z,21.21
2023-03-18T10:04:57.380Z,22.12
2023-03-18T10:07:32.693Z,21.53
2023-03-18T10:10:10.666Z,23.12
2023-03-18T10:12:45.805Z,22.75
2023-03-18T10:15:19.351Z,23.21
2023-03-18T10:17:53.658Z,23.27
2023-03-18T10:20:32.456Z,23.66
2023-03-18T10:23:12.154Z,23.40
2023-03-18T10:25:48.644Z,23.06
2023-03-18T10:28:37.545Z,23.55
2023-03-18T10:31:25.512Z,23.17
2023-03-18T10:33:59.499Z,23.92
2023-03-18T10:36:32.995Z,24.10
2023-03-18T10:39:04.008Z,24.61
2023-03-18T10:41:37.332Z,24.69
2023-03-18T10:44:18.672Z,24.18
2023-03-18T10:46:48.708Z,22.90
2023-03-18T10:49:20.458Z,22.45
2023-03-18T10:51:55.504Z,22.68
2023-03-18T10:54:28.891Z,22.13
2023-03-18T10:57:00.446Z,21.94
2023-03-18T10:59:30.105Z,22.30
2023-03-18T11:02:02.696Z,23.16
2023-03-18T11:04:35.245Z,24.22
2023-03-18T11:07:09.641Z,23.52
2023-03-18T11:09:42.446Z,23.31
2023-03-18T11:12:19.394Z,23.65
2023-03-18T11:14:49.437Z,23.43
2023-03-18T11:17:23.321Z,24.02
2023-03-18T11:20:02.368Z,23.31
2023-03-18T11:22:32.219Z,22.64
2023-03-18T11:25:16.813Z,23.12
2023-03-18T11:27:47.162Z,23.45
2023-03-18T11:30:33.043Z,24.69
2023-03-18T11:33:07.226Z,25.91
2023-03-18T11:35:41.080Z,25.96
2023-03-18T11:38:16.643Z,22.99
2023-03-18T11:40:46.399Z,24.09
2023-03-18T11:43:19.993Z,23.76
2023-03-18T11:45:55.737Z,24.08
2023-03-18T11:48:34.147Z,24.61
2023-03-18T11:51:28.666Z,25.28
2023-03-18T11:54:07.763Z,26.34
2023-03-18T11:56:43.625Z,25.46
2023-03-18T11:59:30.540Z,24.97
2023-03-18T12:02:16.588Z,26.50
2023-03-18T12:05:08.274Z,27.45
2023-03-18T12:07:58.036Z,25.44
2023-03-18T12:10:36.044Z,23.55
2023-03-18T12:13:26.347Z,22.50
2023-03-18T12:16:04.862Z,23.17
2023-03-18T12:18:48.878Z,24.49
2023-03-18T12:21:31.800Z,23.41
2023-03-18T12:24:18.133Z,22.80
2023-03-18T12:26:56.974Z,22.01
2023-03-18T12:29:58.257Z,21.60
2023-03-18T12:32:32.448Z,21.01
2023-03-18T12:35:31.064Z,19.88
2023-03-18T12:38:18.713Z,19.69
2023-03-18T12:40:56.599Z,20.07
2023-03-18T12:43:41.154Z,19.81
2023-03-18T12:46:24.100Z,19.64
2023-03-18T12:48:58.678Z,19.94
2023-03-18T12:51:35.377Z,19.67
2023-03-18T12:54:12.016Z,19.82
2023-03-18T12:56:46.261Z,19.82
2023-03-18T12:59:20.480Z,20.37
2023-03-18T13:02:01.004Z,19.67
2023-03-18T13:04:33.788Z,19.30
2023-03-18T13:07:06.792Z,19.19
2023-03-18T13:09:39.779Z,19.06
2023-03-18T13:12:13.625Z,19.20
2023-03-18T13:14:50.308Z,19.39
2023-03-18T13:17:29.590Z,19.57
2023-03-18T13:20:02.428Z,19.37
2023-03-18T13:22:57.425Z,19.20
2023-03-18T13:25:35.481Z,19.02
2023-03-18T13:28:21.299Z,19.07
2023-03-18T13:31:05.021Z,19.32
2023-03-18T13:33:54.899Z,18.54
2023-03-18T13:36:56.742Z,18.31
2023-03-18T13:39:37.044Z,18.30
2023-03-18T13:42:21.650Z,18.73
2023-03-18T13:45:01.331Z,19.00
2023-03-18T13:47:34.777Z,18.73
2023-03-18T13:50:08.425Z,18.51
2023-03-18T13:52:43.982Z,18.17
2023-03-18T13:55:26.478Z,18.51
2023-03-18T13:58:09.293Z,18.25
2023-03-18T14:00:40.633Z,18.61
2023-03-18T14:03:22.949Z,18.54
2023-03-18T14:05:54.358Z,18.56
2023-03-18T14:08:53.634Z,18.39
2023-03-18T14:11:47.728Z,19.00
2023-03-18T14:14:35.106Z,18.84
2023-03-18T14:17:05.645Z,18.69
2023-03-18T14:19:39.782Z,18.64
2023-03-18T14:22:16.608Z,18.49
2023-03-18T14:24:46.980Z,18.56
2023-03-18T14:27:20.327Z,18.31
2023-03-18T14:29:49.123Z,18.32
2023-03-18T14:32:40.171Z,18.13
2023-03-18T14:35:28.760Z,18.10
2023-03-18T14:38:03.814Z,18.13
2023-03-18T14:40:37.564Z,18.10
2023-03-18T14:43:12.564Z,18.07
2023-03-18T14:45:44.970Z,18.04
2023-03-18T14:48:19.426Z,18.01
2023-03-18T14:52:55.723Z,17.93
2023-03-18T14:55:28.185Z,17.87
2023-03-18T14:57:56.675Z,17.80
2023-03-18T15:00:26.325Z,17.77
2023-03-18T15:03:01.788Z,17.92
2023-03-18T15:05:35.277Z,17.95
2023-03-18T15:08:10.681Z,17.89
2023-03-18T15:10:42.866Z,17.85
2023-03-18T15:13:15.178Z,17.71
2023-03-18T15:15:43.811Z,17.61
2023-03-18T15:18:20.707Z,17.69
2023-03-18T15:20:53.189Z,17.60
2023-03-18T15:23:29.268Z,17.56
2023-03-18T15:25:57.823Z,17.69
2023-03-18T15:28:29.786Z,17.67
2023-03-18T15:31:00.796Z,17.66
2023-03-18T15:33:36.982Z,17.60
2023-03-18T15:36:08.132Z,17.67
2023-03-18T15:38:37.831Z,17.54
2023-03-18T15:41:08.369Z,17.58
2023-03-18T15:43:42.280Z,17.56
2023-03-18T15:46:18.709Z,17.64
2023-03-18T15:48:54.526Z,17.58
2023-03-18T15:51:28.888Z,17.54
2023-03-18T15:54:03.906Z,17.52
2023-03-18T15:56:33.809Z,17.39
2023-03-18T15:59:08.956Z,17.23
2023-03-18T16:01:38.091Z,17.20
2023-03-18T16:04:10.275Z,17.14
2023-03-18T16:06:39.579Z,17.15
2023-03-18T16:09:18.247Z,17.08
2023-03-18T16:11:49.725Z,16.96
2023-03-18T16:14:20.621Z,16.87
2023-03-18T16:16:49.266Z,16.77
2023-03-18T16:19:25.098Z,16.68
2023-03-18T16:21:54.395Z,16.60
2023-03-18T16:24:29.317Z,16.51
2023-03-18T16:26:58.093Z,16.48
2023-03-18T16:29:31.621Z,16.51
2023-03-18T16:32:00.270Z,16.53
2023-03-18T16:34:32.797Z,16.52
2023-03-18T16:37:03.392Z,16.52
2023-03-18T16:39:36.153Z,16.51
2023-03-18T16:42:06.646Z,16.48
2023-03-18T16:44:36.558Z,16.47
2023-03-18T16:47:05.152Z,16.40
2023-03-18T16:49:37.485Z,16.39
2023-03-18T16:52:08.218Z,16.32
2023-03-18T16:54:37.761Z,16.15
2023-03-18T16:57:16.766Z,16.26
2023-03-18T16:59:49.356Z,16.20
2023-03-18T17:02:31.861Z,16.06
2023-03-18T17:05:00.025Z,15.98
2023-03-18T17:07:31.234Z,15.89
2023-03-18T17:10:03.617Z,15.78
2023-03-18T17:12:32.192Z,15.67
2023-03-18T17:15:00.849Z,15.55
2023-03-18T17:17:33.873Z,15.43
2023-03-18T17:20:02.661Z,15.30
2023-03-18T17:22:32.628Z,15.17
2023-03-18T17:25:02.763Z,15.03
2023-03-18T17:27:34.659Z,14.95
2023-03-18T17:30:02.922Z,14.83
2023-03-18T17:32:31.294Z,14.72
2023-03-18T17:34:59.447Z,14.55
2023-03-18T17:37:27.592Z,14.43
2023-03-18T17:39:56.140Z,14.27
2023-03-18T17:42:32.086Z,14.11
2023-03-18T17:45:06.725Z,13.92
2023-03-18T17:47:37.272Z,13.80
2023-03-18T17:50:06.098Z,13.69
2023-03-18T17:52:34.341Z,13.56
2023-03-18T17:55:02.538Z,13.40
2023-03-18T17:57:32.195Z,13.26
2023-03-18T18:00:00.306Z,13.20
2023-03-18T18:02:28.711Z,13.11
2023-03-18T18:04:56.915Z,12.97
2023-03-18T18:07:25.535Z,12.88
2023-03-18T18:09:53.693Z,12.84
2023-03-18T18:12:25.221Z,12.77
2023-03-18T18:14:55.071Z,12.71
2023-03-18T18:17:23.185Z,12.71
2023-03-18T18:19:54.883Z,12.66
2023-03-18T18:22:26.507Z,12.61
2023-03-18T18:24:57.931Z,12.57
2023-03-18T18:27:26.138Z,12.48
2023-03-18T18:29:55.823Z,12.38
2023-03-18T18:32:26.403Z,12.30
2023-03-18T18:34:56.941Z,12.29
2023-03-18T18:37:25.045Z,12.27
2023-03-18T18:39:53.345Z,12.18
2023-03-18T18:42:21.479Z,12.04
2023-03-18T18:44:52.007Z,11.92
2023-03-18T18:47:26.232Z,11.82
2023-03-18T18:49:54.937Z,11.76
2023-03-18T18:52:23.092Z,11.67
2023-03-18T18:54:53.370Z,11.59
2023-03-18T18:57:26.774Z,11.52
2023-03-18T18:59:56.000Z,11.45
2023-03-18T19:02:32.444Z,11.35
2023-03-18T19:05:02.326Z,11.33
2023-03-18T19:07:30.666Z,11.24
2023-03-18T19:10:01.924Z,11.15
2023-03-18T19:12:30.254Z,11.07
2023-03-18T19:14:58.640Z,11.00
2023-03-18T19:17:30.592Z,10.93
2023-03-18T19:20:00.995Z,10.81
2023-03-18T19:22:29.181Z,10.75
2023-03-18T19:24:57.662Z,10.67
2023-03-18T19:27:28.980Z,10.59
2023-03-18T19:30:01.254Z,10.53
2023-03-18T19:32:30.758Z,10.46
2023-03-18T19:34:58.961Z,10.40
2023-03-18T19:37:29.772Z,10.37
2023-03-18T19:40:04.110Z,10.43
2023-03-18T19:42:33.950Z,10.47
2023-03-18T19:45:06.990Z,10.47
2023-03-18T19:47:36.701Z,10.47
2023-03-18T19:53:52.264Z,10.51
2023-03-18T19:56:26.132Z,10.49
2023-03-18T19:58:55.445Z,10.49
2023-03-18T20:01:24.341Z,10.51
2023-03-18T20:03:58.192Z,10.50
2023-03-18T20:06:27.664Z,10.45
2023-03-18T20:08:59.793Z,10.40
2023-03-18T20:11:30.467Z,10.38
2023-03-18T20:13:58.843Z,10.42
2023-03-18T20:16:29.551Z,10.37
2023-03-18T20:18:57.776Z,10.34
2023-03-18T20:21:32.177Z,10.39
2023-03-18T20:24:07.752Z,10.39
2023-03-18T20:26:37.301Z,10.37
2023-03-18T20:29:16.098Z,10.36
2023-03-18T20:31:44.880Z,10.35
2023-03-18T20:34:13.800Z,10.23
2023-03-18T20:36:43.253Z,10.32
2023-03-18T20:39:21.619Z,10.34
2023-03-18T20:41:50.530Z,10.29
2023-03-18T20:44:18.700Z,10.34
2023-03-18T20:46:47.060Z,10.31
2023-03-18T20:49:15.320Z,10.25
2023-03-18T20:51:46.722Z,10.19
2023-03-18T20:54:25.472Z,10.14
2023-03-18T20:56:54.135Z,10.07
2023-03-18T20:59:22.311Z,10.02
2023-03-18T21:01:52.981Z,9.99
2023-03-18T21:04:21.765Z,10.06
2023-03-18T21:06:50.461Z,10.01
2023-03-18T21:09:20.262Z,9.94
2023-03-18T21:11:49.243Z,9.91
2023-03-18T21:14:17.947Z,9.86
2023-03-18T21:16:50.048Z,9.77
2023-03-18T21:19:18.939Z,9.71
2023-03-18T21:21:47.679Z,9.66
2023-03-18T21:24:25.636Z,9.62
2023-03-18T21:27:05.393Z,9.59
2023-03-18T21:29:35.787Z,9.55
2023-03-18T21:32:31.793Z,9.56
2023-03-18T21:35:06.059Z,9.55
2023-03-18T21:37:34.823Z,9.49
2023-03-18T21:40:05.039Z,9.46
2023-03-18T21:42:36.854Z,9.44
2023-03-18T21:45:05.713Z,9.33
2023-03-18T21:47:36.465Z,9.26
2023-03-18T21:50:07.993Z,9.20
2023-03-18T21:52:38.576Z,9.14
2023-03-18T21:55:12.437Z,9.07
2023-03-18T21:57:40.868Z,8.97
2023-03-18T22:00:17.354Z,8.91
2023-03-18T22:02:49.298Z,8.82
2023-03-18T22:05:20.476Z,8.71
2023-03-18T22:07:50.359Z,8.59
2023-03-18T22:10:22.909Z,8.53
2023-03-18T22:12:51.367Z,8.47
2023-03-18T22:15:40.375Z,8.48
2023-03-18T22:18:08.925Z,8.43
2023-03-18T22:20:39.206Z,8.30
2023-03-18T22:23:14.835Z,8.20
2023-03-18T22:25:45.872Z,8.07
2023-03-18T22:28:16.937Z,8.01
2023-03-18T22:30:47.325Z,8.00
2023-03-18T22:33:21.331Z,8.02
2023-03-18T22:35:49.534Z,8.08
2023-03-18T22:38:19.740Z,8.10
2023-03-18T22:40:51.749Z,8.13
2023-03-18T22:43:32.009Z,8.16
2023-03-18T22:46:01.017Z,8.21
2023-03-18T22:48:29.638Z,8.28
2023-03-18T22:51:00.060Z,8.26
2023-03-18T22:53:31.546Z,8.31
2023-03-18T22:56:06.947Z,8.44
2023-03-18T22:58:35.619Z,8.47
2023-03-18T23:01:04.252Z,8.47
2023-03-18T23:03:34.988Z,8.54
2023-03-18T23:06:05.620Z,8.58
2023-03-18T23:08:34.366Z,8.64
2023-03-18T23:11:03.908Z,8.64
2023-03-18T23:13:36.029Z,8.66
2023-03-18T23:16:05.775Z,8.64
2023-03-18T23:18:34.591Z,8.61
2023-03-18T23:21:02.898Z,8.59
2023-03-18T23:23:31.872Z,8.59
2023-03-18T23:26:00.085Z,8.58
2023-03-18T23:28:33.042Z,8.56
2023-03-18T23:31:02.682Z,8.55
2023-03-18T23:33:32.207Z,8.55
2023-03-18T23:36:03.701Z,8.52
2023-03-18T23:38:32.220Z,8.49
2023-03-18T23:41:00.430Z,8.45
2023-03-18T23:43:30.375Z,8.45
2023-03-18T23:46:02.232Z,8.47
2023-03-18T23:48:31.326Z,8.46
2023-03-18T23:50:59.571Z,8.51
2023-03-18T23:53:28.197Z,8.49
2023-03-18T23:55:56.776Z,8.50
2023-03-18T23:58:25.236Z,8.49
